sensor_id;sensor_type;location;lat;lon;timestamp;P1;durP1;ratioP1;P2;durP2;ratioP2
57726;SDS011;43568;43.180;-0.028;2022-08-07T00:01:35;2.00;;;1.92;;
57726;SDS011;43568;43.180;-0.028;2022-08-07T00:04:01;1.85;;;1.25;;
57726;SDS011;43568;43.180;-0.028;2022-08-07T00:06:27;1.20;;;1.20;;
57726;SDS011;43568;43.180;-0.028;2022-08-07T00:08:53;1.30;;;1.30;;
57726;SDS011;43568;43.180;-0.028;2022-08-07T00:11:19;2.03;;;1.92;;
57726;SDS011;43568;43.180;-0.028;2022-08-07T00:13:45;1.42;;;1.40;;
57726;SDS011;43568;43.180;-0.028;2022-08-07T00:16:12;1.20;;;1.20;;
57726;SDS011;43568;43.180;-0.028;2022-08-07T00:18:38;1.42;;;1.42;;
57726;SDS011;43568;43.180;-0.028;2022-08-07T00:21:05;1.20;;;1.20;;
57726;SDS011;43568;43.180;-0.028;2022-08-07T00:23:32;1.50;;;1.50;;
57726;SDS011;43568;43.180;-0.028;2022-08-07T00:25:59;1.30;;;1.30;;
57726;SDS011;43568;43.180;-0.028;2022-08-07T00:28:25;1.30;;;1.30;;
57726;SDS011;43568;43.180;-0.028;2022-08-07T00:30:51;2.08;;;1.98;;
57726;SDS011;43568;43.180;-0.028;2022-08-07T00:33:17;1.60;;;1.50;;
57726;SDS011;43568;43.180;-0.028;2022-08-07T00:35:44;1.77;;;1.67;;
57726;SDS011;43568;43.180;-0.028;2022-08-07T00:38:10;1.70;;;1.70;;
57726;SDS011;43568;43.180;-0.028;2022-08-07T00:40:36;1.45;;;1.45;;
57726;SDS011;43568;43.180;-0.028;2022-08-07T00:43:02;1.48;;;1.42;;
57726;SDS011;43568;43.180;-0.028;2022-08-07T00:45:28;1.30;;;1.30;;
57726;SDS011;43568;43.180;-0.028;2022-08-07T00:47:54;1.30;;;1.30;;
57726;SDS011;43568;43.180;-0.028;2022-08-07T00:50:20;1.40;;;1.40;;
57726;SDS011;43568;43.180;-0.028;2022-08-07T00:52:46;1.20;;;1.20;;
57726;SDS011;43568;43.180;-0.028;2022-08-07T00:55:12;2.25;;;1.73;;
57726;SDS011;43568;43.180;-0.028;2022-08-07T00:57:38;1.20;;;1.20;;
57726;SDS011;43568;43.180;-0.028;2022-08-07T01:00:06;1.27;;;1.27;;
57726;SDS011;43568;43.180;-0.028;2022-08-07T01:02:32;1.98;;;1.90;;
57726;SDS011;43568;43.180;-0.028;2022-08-07T01:04:59;1.25;;;1.25;;
57726;SDS011;43568;43.180;-0.028;2022-08-07T01:07:26;9.27;;;1.75;;
57726;SDS011;43568;43.180;-0.028;2022-08-07T01:09:52;1.43;;;1.43;;
57726;SDS011;43568;43.180;-0.028;2022-08-07T01:12:18;1.95;;;1.85;;
57726;SDS011;43568;43.180;-0.028;2022-08-07T01:14:44;1.30;;;1.30;;
57726;SDS011;43568;43.180;-0.028;2022-08-07T01:17:10;1.80;;;1.80;;
57726;SDS011;43568;43.180;-0.028;2022-08-07T01:19:36;1.30;;;1.30;;
57726;SDS011;43568;43.180;-0.028;2022-08-07T01:22:03;1.80;;;1.80;;
57726;SDS011;43568;43.180;-0.028;2022-08-07T01:24:29;1.52;;;1.48;;
57726;SDS011;43568;43.180;-0.028;2022-08-07T01:26:55;1.80;;;1.80;;
57726;SDS011;43568;43.180;-0.028;2022-08-07T01:29:22;1.52;;;1.52;;
57726;SDS011;43568;43.180;-0.028;2022-08-07T01:31:48;1.42;;;1.42;;
57726;SDS011;43568;43.180;-0.028;2022-08-07T01:34:14;1.58;;;1.58;;
57726;SDS011;43568;43.180;-0.028;2022-08-07T01:36:41;1.70;;;1.70;;
57726;SDS011;43568;43.180;-0.028;2022-08-07T01:39:08;1.77;;;1.77;;
57726;SDS011;43568;43.180;-0.028;2022-08-07T01:41:34;1.40;;;1.40;;
57726;SDS011;43568;43.180;-0.028;2022-08-07T01:44:00;1.55;;;1.55;;
57726;SDS011;43568;43.180;-0.028;2022-08-07T01:46:27;1.70;;;1.70;;
57726;SDS011;43568;43.180;-0.028;2022-08-07T01:48:53;2.22;;;2.03;;
57726;SDS011;43568;43.180;-0.028;2022-08-07T01:51:20;1.55;;;1.55;;
57726;SDS011;43568;43.180;-0.028;2022-08-07T01:53:48;2.55;;;2.40;;
57726;SDS011;43568;43.180;-0.028;2022-08-07T01:56:16;1.52;;;1.52;;
57726;SDS011;43568;43.180;-0.028;2022-08-07T01:58:49;1.50;;;1.50;;
57726;SDS011;43568;43.180;-0.028;2022-08-07T02:01:19;1.30;;;1.30;;
57726;SDS011;43568;43.180;-0.028;2022-08-07T02:03:48;1.50;;;1.50;;
57726;SDS011;43568;43.180;-0.028;2022-08-07T02:06:16;1.88;;;1.77;;
57726;SDS011;43568;43.180;-0.028;2022-08-07T02:11:10;1.50;;;1.50;;
57726;SDS011;43568;43.180;-0.028;2022-08-07T02:13:36;1.58;;;1.58;;
57726;SDS011;43568;43.180;-0.028;2022-08-07T02:16:04;1.75;;;1.70;;
57726;SDS011;43568;43.180;-0.028;2022-08-07T02:18:32;1.95;;;1.85;;
57726;SDS011;43568;43.180;-0.028;2022-08-07T02:21:00;1.58;;;1.58;;
57726;SDS011;43568;43.180;-0.028;2022-08-07T02:23:27;1.30;;;1.30;;
57726;SDS011;43568;43.180;-0.028;2022-08-07T02:25:54;1.48;;;1.48;;
57726;SDS011;43568;43.180;-0.028;2022-08-07T02:28:22;1.60;;;1.60;;
57726;SDS011;43568;43.180;-0.028;2022-08-07T02:30:50;1.50;;;1.50;;
57726;SDS011;43568;43.180;-0.028;2022-08-07T02:33:17;1.30;;;1.30;;
57726;SDS011;43568;43.180;-0.028;2022-08-07T02:35:43;1.40;;;1.40;;
57726;SDS011;43568;43.180;-0.028;2022-08-07T02:38:10;1.60;;;1.60;;
57726;SDS011;43568;43.180;-0.028;2022-08-07T02:40:37;1.50;;;1.50;;
57726;SDS011;43568;43.180;-0.028;2022-08-07T02:43:03;1.40;;;1.40;;
57726;SDS011;43568;43.180;-0.028;2022-08-07T02:45:30;2.63;;;2.42;;
57726;SDS011;43568;43.180;-0.028;2022-08-07T02:47:58;1.63;;;1.63;;
57726;SDS011;43568;43.180;-0.028;2022-08-07T02:50:24;2.08;;;1.98;;
57726;SDS011;43568;43.180;-0.028;2022-08-07T02:53:00;1.55;;;1.48;;
57726;SDS011;43568;43.180;-0.028;2022-08-07T02:55:29;2.45;;;2.17;;
57726;SDS011;43568;43.180;-0.028;2022-08-07T02:57:57;1.40;;;1.40;;
57726;SDS011;43568;43.180;-0.028;2022-08-07T03:00:27;1.50;;;1.50;;
57726;SDS011;43568;43.180;-0.028;2022-08-07T03:02:53;1.30;;;1.30;;
57726;SDS011;43568;43.180;-0.028;2022-08-07T03:05:19;1.40;;;1.40;;
57726;SDS011;43568;43.180;-0.028;2022-08-07T03:07:45;1.30;;;1.30;;
57726;SDS011;43568;43.180;-0.028;2022-08-07T03:10:12;1.67;;;1.67;;
57726;SDS011;43568;43.180;-0.028;2022-08-07T03:12:40;1.50;;;1.50;;
57726;SDS011;43568;43.180;-0.028;2022-08-07T03:15:07;6.93;;;1.90;;
57726;SDS011;43568;43.180;-0.028;2022-08-07T03:17:33;1.40;;;1.40;;
57726;SDS011;43568;43.180;-0.028;2022-08-07T03:22:27;1.30;;;1.30;;
57726;SDS011;43568;43.180;-0.028;2022-08-07T03:24:53;1.65;;;1.65;;
57726;SDS011;43568;43.180;-0.028;2022-08-07T03:27:21;1.55;;;1.55;;
57726;SDS011;43568;43.180;-0.028;2022-08-07T03:29:48;2.30;;;1.67;;
57726;SDS011;43568;43.180;-0.028;2022-08-07T03:34:41;2.22;;;1.58;;
57726;SDS011;43568;43.180;-0.028;2022-08-07T03:37:08;1.73;;;1.73;;
57726;SDS011;43568;43.180;-0.028;2022-08-07T03:39:35;1.70;;;1.70;;
57726;SDS011;43568;43.180;-0.028;2022-08-07T03:42:02;1.98;;;1.88;;
57726;SDS011;43568;43.180;-0.028;2022-08-07T03:44:29;1.65;;;1.65;;
57726;SDS011;43568;43.180;-0.028;2022-08-07T03:46:55;1.50;;;1.50;;
57726;SDS011;43568;43.180;-0.028;2022-08-07T03:49:21;1.40;;;1.40;;
57726;SDS011;43568;43.180;-0.028;2022-08-07T03:51:47;1.65;;;1.60;;
57726;SDS011;43568;43.180;-0.028;2022-08-07T03:54:15;2.33;;;2.22;;
57726;SDS011;43568;43.180;-0.028;2022-08-07T03:56:41;2.20;;;2.10;;
57726;SDS011;43568;43.180;-0.028;2022-08-07T03:59:07;1.67;;;1.60;;
57726;SDS011;43568;43.180;-0.028;2022-08-07T04:01:38;1.45;;;1.45;;
57726;SDS011;43568;43.180;-0.028;2022-08-07T04:04:05;3.58;;;1.90;;
57726;SDS011;43568;43.180;-0.028;2022-08-07T04:06:31;1.67;;;1.67;;
57726;SDS011;43568;43.180;-0.028;2022-08-07T04:08:58;9.00;;;1.63;;
57726;SDS011;43568;43.180;-0.028;2022-08-07T04:11:24;1.50;;;1.50;;
57726;SDS011;43568;43.180;-0.028;2022-08-07T04:13:50;1.63;;;1.63;;
57726;SDS011;43568;43.180;-0.028;2022-08-07T04:16:16;1.50;;;1.50;;
57726;SDS011;43568;43.180;-0.028;2022-08-07T04:18:43;2.53;;;2.42;;
57726;SDS011;43568;43.180;-0.028;2022-08-07T04:21:09;1.88;;;1.80;;
57726;SDS011;43568;43.180;-0.028;2022-08-07T04:23:35;1.92;;;1.83;;
57726;SDS011;43568;43.180;-0.028;2022-08-07T04:26:02;1.83;;;1.83;;
57726;SDS011;43568;43.180;-0.028;2022-08-07T04:28:28;1.70;;;1.70;;
57726;SDS011;43568;43.180;-0.028;2022-08-07T04:30:54;1.60;;;1.60;;
57726;SDS011;43568;43.180;-0.028;2022-08-07T04:33:20;1.60;;;1.60;;
57726;SDS011;43568;43.180;-0.028;2022-08-07T04:35:47;2.10;;;2.00;;
57726;SDS011;43568;43.180;-0.028;2022-08-07T04:38:13;1.50;;;1.50;;
57726;SDS011;43568;43.180;-0.028;2022-08-07T04:40:40;1.63;;;1.63;;
57726;SDS011;43568;43.180;-0.028;2022-08-07T04:43:06;2.30;;;2.10;;
57726;SDS011;43568;43.180;-0.028;2022-08-07T04:48:27;1.70;;;1.70;;
57726;SDS011;43568;43.180;-0.028;2022-08-07T04:50:52;2.17;;;2.10;;
57726;SDS011;43568;43.180;-0.028;2022-08-07T04:53:36;1.60;;;1.60;;
57726;SDS011;43568;43.180;-0.028;2022-08-07T04:59:07;1.50;;;1.50;;
57726;SDS011;43568;43.180;-0.028;2022-08-07T05:04:13;2.30;;;2.20;;
57726;SDS011;43568;43.180;-0.028;2022-08-07T05:09:11;1.50;;;1.50;;
57726;SDS011;43568;43.180;-0.028;2022-08-07T05:11:44;1.50;;;1.50;;
57726;SDS011;43568;43.180;-0.028;2022-08-07T05:14:13;1.48;;;1.48;;
57726;SDS011;43568;43.180;-0.028;2022-08-07T05:16:42;1.50;;;1.50;;
57726;SDS011;43568;43.180;-0.028;2022-08-07T05:19:12;1.70;;;1.70;;
57726;SDS011;43568;43.180;-0.028;2022-08-07T05:21:42;3.17;;;2.25;;
57726;SDS011;43568;43.180;-0.028;2022-08-07T05:24:10;1.60;;;1.60;;
57726;SDS011;43568;43.180;-0.028;2022-08-07T05:26:36;1.52;;;1.52;;
57726;SDS011;43568;43.180;-0.028;2022-08-07T05:29:03;1.75;;;1.73;;
57726;SDS011;43568;43.180;-0.028;2022-08-07T05:31:31;4.72;;;1.83;;
57726;SDS011;43568;43.180;-0.028;2022-08-07T05:33:59;1.65;;;1.65;;
57726;SDS011;43568;43.180;-0.028;2022-08-07T05:38:52;1.83;;;1.83;;
57726;SDS011;43568;43.180;-0.028;2022-08-07T05:41:19;2.03;;;2.03;;
57726;SDS011;43568;43.180;-0.028;2022-08-07T05:43:49;1.70;;;1.70;;
57726;SDS011;43568;43.180;-0.028;2022-08-07T05:46:16;1.85;;;1.75;;
57726;SDS011;43568;43.180;-0.028;2022-08-07T05:48:44;1.40;;;1.40;;
57726;SDS011;43568;43.180;-0.028;2022-08-07T05:51:10;1.50;;;1.50;;
57726;SDS011;43568;43.180;-0.028;2022-08-07T05:53:37;1.52;;;1.52;;
57726;SDS011;43568;43.180;-0.028;2022-08-07T05:56:03;1.70;;;1.70;;
57726;SDS011;43568;43.180;-0.028;2022-08-07T05:58:30;1.60;;;1.60;;
57726;SDS011;43568;43.180;-0.028;2022-08-07T06:00:57;1.42;;;1.42;;
57726;SDS011;43568;43.180;-0.028;2022-08-07T06:03:24;1.33;;;1.33;;
57726;SDS011;43568;43.180;-0.028;2022-08-07T06:05:50;1.42;;;1.42;;
57726;SDS011;43568;43.180;-0.028;2022-08-07T06:08:17;1.67;;;1.58;;
57726;SDS011;43568;43.180;-0.028;2022-08-07T06:10:43;1.30;;;1.30;;
57726;SDS011;43568;43.180;-0.028;2022-08-07T06:13:10;1.45;;;1.35;;
57726;SDS011;43568;43.180;-0.028;2022-08-07T06:15:37;1.10;;;1.10;;
57726;SDS011;43568;43.180;-0.028;2022-08-07T06:18:04;1.20;;;1.20;;
57726;SDS011;43568;43.180;-0.028;2022-08-07T06:20:30;1.30;;;1.30;;
57726;SDS011;43568;43.180;-0.028;2022-08-07T06:22:59;1.30;;;1.30;;
57726;SDS011;43568;43.180;-0.028;2022-08-07T06:25:26;1.10;;;1.10;;
57726;SDS011;43568;43.180;-0.028;2022-08-07T06:28:00;2.30;;;1.45;;
57726;SDS011;43568;43.180;-0.028;2022-08-07T06:30:26;2.10;;;1.90;;
57726;SDS011;43568;43.180;-0.028;2022-08-07T06:32:52;1.02;;;1.02;;
57726;SDS011;43568;43.180;-0.028;2022-08-07T06:35:18;1.80;;;1.70;;
57726;SDS011;43568;43.180;-0.028;2022-08-07T06:37:44;1.23;;;1.15;;
57726;SDS011;43568;43.180;-0.028;2022-08-07T06:40:10;3.22;;;2.25;;
57726;SDS011;43568;43.180;-0.028;2022-08-07T06:42:36;1.23;;;1.23;;
57726;SDS011;43568;43.180;-0.028;2022-08-07T06:45:03;1.07;;;1.07;;
57726;SDS011;43568;43.180;-0.028;2022-08-07T06:47:31;1.00;;;1.00;;
57726;SDS011;43568;43.180;-0.028;2022-08-07T06:49:57;1.10;;;1.10;;
57726;SDS011;43568;43.180;-0.028;2022-08-07T06:52:23;8.88;;;1.23;;
57726;SDS011;43568;43.180;-0.028;2022-08-07T06:54:51;1.30;;;1.10;;
57726;SDS011;43568;43.180;-0.028;2022-08-07T06:57:17;1.00;;;1.00;;
57726;SDS011;43568;43.180;-0.028;2022-08-07T06:59:45;1.77;;;1.67;;
57726;SDS011;43568;43.180;-0.028;2022-08-07T07:02:14;1.17;;;1.17;;
57726;SDS011;43568;43.180;-0.028;2022-08-07T07:04:42;1.00;;;1.00;;
57726;SDS011;43568;43.180;-0.028;2022-08-07T07:07:08;1.23;;;1.23;;
57726;SDS011;43568;43.180;-0.028;2022-08-07T07:09:34;1.15;;;1.15;;
57726;SDS011;43568;43.180;-0.028;2022-08-07T07:14:41;0.90;;;0.90;;
57726;SDS011;43568;43.180;-0.028;2022-08-07T07:17:12;1.13;;;1.02;;
57726;SDS011;43568;43.180;-0.028;2022-08-07T07:19:44;0.80;;;0.80;;
57726;SDS011;43568;43.180;-0.028;2022-08-07T07:22:10;0.90;;;0.90;;
57726;SDS011;43568;43.180;-0.028;2022-08-07T07:24:37;0.90;;;0.90;;
57726;SDS011;43568;43.180;-0.028;2022-08-07T07:27:04;0.80;;;0.80;;
57726;SDS011;43568;43.180;-0.028;2022-08-07T07:29:32;1.10;;;1.10;;
57726;SDS011;43568;43.180;-0.028;2022-08-07T07:31:59;0.82;;;0.82;;
57726;SDS011;43568;43.180;-0.028;2022-08-07T07:34:28;1.15;;;1.15;;
57726;SDS011;43568;43.180;-0.028;2022-08-07T07:36:55;7.22;;;1.52;;
57726;SDS011;43568;43.180;-0.028;2022-08-07T07:39:22;4.05;;;1.73;;
57726;SDS011;43568;43.180;-0.028;2022-08-07T07:41:49;1.33;;;1.33;;
57726;SDS011;43568;43.180;-0.028;2022-08-07T07:44:17;1.70;;;1.60;;
57726;SDS011;43568;43.180;-0.028;2022-08-07T07:46:44;1.65;;;0.90;;
57726;SDS011;43568;43.180;-0.028;2022-08-07T07:49:11;0.90;;;0.90;;
57726;SDS011;43568;43.180;-0.028;2022-08-07T07:51:40;1.00;;;1.00;;
57726;SDS011;43568;43.180;-0.028;2022-08-07T07:54:07;0.82;;;0.82;;
57726;SDS011;43568;43.180;-0.028;2022-08-07T07:56:33;1.00;;;1.00;;
57726;SDS011;43568;43.180;-0.028;2022-08-07T07:59:00;1.05;;;1.05;;
57726;SDS011;43568;43.180;-0.028;2022-08-07T08:01:28;5.15;;;1.60;;
57726;SDS011;43568;43.180;-0.028;2022-08-07T08:06:20;0.85;;;0.85;;
57726;SDS011;43568;43.180;-0.028;2022-08-07T08:08:48;1.55;;;1.45;;
57726;SDS011;43568;43.180;-0.028;2022-08-07T08:11:15;2.55;;;1.17;;
57726;SDS011;43568;43.180;-0.028;2022-08-07T08:13:42;0.80;;;0.80;;
57726;SDS011;43568;43.180;-0.028;2022-08-07T08:16:08;1.45;;;1.17;;
57726;SDS011;43568;43.180;-0.028;2022-08-07T08:18:37;0.90;;;0.90;;
57726;SDS011;43568;43.180;-0.028;2022-08-07T08:21:03;0.60;;;0.60;;
57726;SDS011;43568;43.180;-0.028;2022-08-07T08:23:30;1.75;;;1.25;;
57726;SDS011;43568;43.180;-0.028;2022-08-07T08:26:17;1.00;;;1.00;;
57726;SDS011;43568;43.180;-0.028;2022-08-07T08:29:02;0.90;;;0.90;;
57726;SDS011;43568;43.180;-0.028;2022-08-07T08:31:29;0.75;;;0.75;;
57726;SDS011;43568;43.180;-0.028;2022-08-07T08:33:57;0.70;;;0.70;;
57726;SDS011;43568;43.180;-0.028;2022-08-07T08:36:26;0.80;;;0.80;;
57726;SDS011;43568;43.180;-0.028;2022-08-07T08:38:53;1.58;;;1.13;;
57726;SDS011;43568;43.180;-0.028;2022-08-07T08:41:25;0.70;;;0.70;;
57726;SDS011;43568;43.180;-0.028;2022-08-07T08:46:27;0.70;;;0.70;;
57726;SDS011;43568;43.180;-0.028;2022-08-07T08:49:11;0.90;;;0.90;;
57726;SDS011;43568;43.180;-0.028;2022-08-07T08:51:53;0.60;;;0.60;;
57726;SDS011;43568;43.180;-0.028;2022-08-07T08:56:47;0.68;;;0.68;;
57726;SDS011;43568;43.180;-0.028;2022-08-07T08:59:27;0.52;;;0.52;;
57726;SDS011;43568;43.180;-0.028;2022-08-07T09:02:12;0.82;;;0.82;;
57726;SDS011;43568;43.180;-0.028;2022-08-07T09:12:19;0.90;;;0.90;;
57726;SDS011;43568;43.180;-0.028;2022-08-07T09:15:03;0.95;;;0.95;;
57726;SDS011;43568;43.180;-0.028;2022-08-07T09:17:34;1.35;;;1.25;;
57726;SDS011;43568;43.180;-0.028;2022-08-07T09:20:17;0.55;;;0.55;;
57726;SDS011;43568;43.180;-0.028;2022-08-07T09:22:51;0.70;;;0.70;;
57726;SDS011;43568;43.180;-0.028;2022-08-07T09:25:32;0.60;;;0.60;;
57726;SDS011;43568;43.180;-0.028;2022-08-07T09:28:03;1.23;;;1.02;;
57726;SDS011;43568;43.180;-0.028;2022-08-07T09:31:15;0.50;;;0.50;;
57726;SDS011;43568;43.180;-0.028;2022-08-07T09:33:25;0.70;;;0.70;;
57726;SDS011;43568;43.180;-0.028;2022-08-07T09:36:05;0.65;;;0.65;;
57726;SDS011;43568;43.180;-0.028;2022-08-07T09:44:26;0.60;;;0.60;;
57726;SDS011;43568;43.180;-0.028;2022-08-07T09:51:52;0.50;;;0.50;;
57726;SDS011;43568;43.180;-0.028;2022-08-07T09:54:21;0.50;;;0.50;;
57726;SDS011;43568;43.180;-0.028;2022-08-07T10:15:15;0.60;;;0.60;;
57726;SDS011;43568;43.180;-0.028;2022-08-07T10:36:07;0.50;;;0.50;;
57726;SDS011;43568;43.180;-0.028;2022-08-07T10:41:14;0.50;;;0.50;;
57726;SDS011;43568;43.180;-0.028;2022-08-07T10:43:58;0.73;;;0.73;;
57726;SDS011;43568;43.180;-0.028;2022-08-07T10:46:26;0.80;;;0.80;;
57726;SDS011;43568;43.180;-0.028;2022-08-07T10:51:21;0.60;;;0.60;;
57726;SDS011;43568;43.180;-0.028;2022-08-07T11:01:47;0.77;;;0.77;;
57726;SDS011;43568;43.180;-0.028;2022-08-07T11:06:47;0.70;;;0.70;;
57726;SDS011;43568;43.180;-0.028;2022-08-07T11:09:19;1.10;;;1.02;;
57726;SDS011;43568;43.180;-0.028;2022-08-07T11:14:39;0.82;;;0.82;;
57726;SDS011;43568;43.180;-0.028;2022-08-07T11:20:10;0.40;;;0.40;;
57726;SDS011;43568;43.180;-0.028;2022-08-07T11:22:43;1.00;;;0.70;;
57726;SDS011;43568;43.180;-0.028;2022-08-07T11:25:25;2.47;;;0.60;;
57726;SDS011;43568;43.180;-0.028;2022-08-07T11:28:00;0.40;;;0.40;;
57726;SDS011;43568;43.180;-0.028;2022-08-07T11:30:33;0.50;;;0.50;;
57726;SDS011;43568;43.180;-0.028;2022-08-07T11:33:08;0.50;;;0.50;;
57726;SDS011;43568;43.180;-0.028;2022-08-07T11:35:45;0.77;;;0.50;;
57726;SDS011;43568;43.180;-0.028;2022-08-07T11:38:38;0.55;;;0.55;;
57726;SDS011;43568;43.180;-0.028;2022-08-07T11:41:16;1.13;;;1.08;;
57726;SDS011;43568;43.180;-0.028;2022-08-07T11:43:52;0.47;;;0.47;;
57726;SDS011;43568;43.180;-0.028;2022-08-07T12:04:33;0.88;;;0.88;;
57726;SDS011;43568;43.180;-0.028;2022-08-07T12:09:40;0.50;;;0.50;;
57726;SDS011;43568;43.180;-0.028;2022-08-07T12:12:09;0.80;;;0.80;;
57726;SDS011;43568;43.180;-0.028;2022-08-07T12:17:22;0.50;;;0.50;;
57726;SDS011;43568;43.180;-0.028;2022-08-07T12:20:01;0.57;;;0.57;;
57726;SDS011;43568;43.180;-0.028;2022-08-07T12:25:19;0.47;;;0.47;;
57726;SDS011;43568;43.180;-0.028;2022-08-07T12:28:09;0.77;;;0.77;;
57726;SDS011;43568;43.180;-0.028;2022-08-07T12:30:37;3.13;;;0.90;;
57726;SDS011;43568;43.180;-0.028;2022-08-07T12:33:12;1.13;;;0.60;;
57726;SDS011;43568;43.180;-0.028;2022-08-07T12:35:42;0.50;;;0.50;;
57726;SDS011;43568;43.180;-0.028;2022-08-07T12:38:09;0.45;;;0.45;;
57726;SDS011;43568;43.180;-0.028;2022-08-07T12:40:37;4.03;;;1.25;;
57726;SDS011;43568;43.180;-0.028;2022-08-07T12:43:05;0.70;;;0.70;;
57726;SDS011;43568;43.180;-0.028;2022-08-07T12:45:34;0.45;;;0.45;;
57726;SDS011;43568;43.180;-0.028;2022-08-07T12:48:23;0.40;;;0.40;;
57726;SDS011;43568;43.180;-0.028;2022-08-07T12:50:57;0.52;;;0.52;;
57726;SDS011;43568;43.180;-0.028;2022-08-07T12:53:47;0.32;;;0.32;;
57726;SDS011;43568;43.180;-0.028;2022-08-07T12:58:43;0.75;;;0.75;;
57726;SDS011;43568;43.180;-0.028;2022-08-07T13:09:13;0.68;;;0.57;;
57726;SDS011;43568;43.180;-0.028;2022-08-07T13:14:18;0.98;;;0.98;;
57726;SDS011;43568;43.180;-0.028;2022-08-07T13:19:33;0.43;;;0.43;;
57726;SDS011;43568;43.180;-0.028;2022-08-07T13:24:41;0.75;;;0.75;;
57726;SDS011;43568;43.180;-0.028;2022-08-07T13:27:15;0.45;;;0.45;;
57726;SDS011;43568;43.180;-0.028;2022-08-07T13:29:48;0.70;;;0.70;;
57726;SDS011;43568;43.180;-0.028;2022-08-07T13:35:06;0.60;;;0.60;;
57726;SDS011;43568;43.180;-0.028;2022-08-07T13:40:11;0.60;;;0.60;;
57726;SDS011;43568;43.180;-0.028;2022-08-07T13:42:38;0.73;;;0.73;;
57726;SDS011;43568;43.180;-0.028;2022-08-07T13:47:33;0.40;;;0.40;;
57726;SDS011;43568;43.180;-0.028;2022-08-07T13:50:00;0.70;;;0.70;;
57726;SDS011;43568;43.180;-0.028;2022-08-07T13:54:56;0.50;;;0.50;;
57726;SDS011;43568;43.180;-0.028;2022-08-07T13:57:26;0.50;;;0.50;;
57726;SDS011;43568;43.180;-0.028;2022-08-07T13:59:53;0.50;;;0.50;;
57726;SDS011;43568;43.180;-0.028;2022-08-07T14:02:27;0.70;;;0.70;;
57726;SDS011;43568;43.180;-0.028;2022-08-07T14:04:55;0.57;;;0.57;;
57726;SDS011;43568;43.180;-0.028;2022-08-07T14:07:23;0.93;;;0.93;;
57726;SDS011;43568;43.180;-0.028;2022-08-07T14:09:51;0.80;;;0.80;;
57726;SDS011;43568;43.180;-0.028;2022-08-07T14:15:05;0.43;;;0.43;;
57726;SDS011;43568;43.180;-0.028;2022-08-07T14:17:34;0.60;;;0.60;;
57726;SDS011;43568;43.180;-0.028;2022-08-07T14:22:30;0.70;;;0.70;;
57726;SDS011;43568;43.180;-0.028;2022-08-07T14:24:58;2.97;;;0.82;;
57726;SDS011;43568;43.180;-0.028;2022-08-07T14:27:26;1.38;;;0.98;;
57726;SDS011;43568;43.180;-0.028;2022-08-07T14:29:55;0.55;;;0.55;;
57726;SDS011;43568;43.180;-0.028;2022-08-07T14:32:22;2.05;;;1.40;;
57726;SDS011;43568;43.180;-0.028;2022-08-07T14:34:50;0.60;;;0.60;;
57726;SDS011;43568;43.180;-0.028;2022-08-07T14:37:17;0.40;;;0.40;;
57726;SDS011;43568;43.180;-0.028;2022-08-07T14:39:43;0.50;;;0.50;;
57726;SDS011;43568;43.180;-0.028;2022-08-07T14:42:11;1.10;;;0.95;;
57726;SDS011;43568;43.180;-0.028;2022-08-07T14:44:37;0.65;;;0.65;;
57726;SDS011;43568;43.180;-0.028;2022-08-07T14:49:31;0.63;;;0.63;;
57726;SDS011;43568;43.180;-0.028;2022-08-07T14:51:59;0.40;;;0.40;;
57726;SDS011;43568;43.180;-0.028;2022-08-07T14:54:30;0.50;;;0.50;;
57726;SDS011;43568;43.180;-0.028;2022-08-07T14:56:57;0.70;;;0.70;;
57726;SDS011;43568;43.180;-0.028;2022-08-07T15:01:51;4.55;;;1.02;;
57726;SDS011;43568;43.180;-0.028;2022-08-07T15:06:45;1.02;;;1.00;;
57726;SDS011;43568;43.180;-0.028;2022-08-07T15:09:14;0.60;;;0.60;;
57726;SDS011;43568;43.180;-0.028;2022-08-07T15:11:47;0.40;;;0.40;;
57726;SDS011;43568;43.180;-0.028;2022-08-07T15:14:18;0.93;;;0.93;;
57726;SDS011;43568;43.180;-0.028;2022-08-07T15:16:49;0.68;;;0.50;;
57726;SDS011;43568;43.180;-0.028;2022-08-07T15:19:17;0.40;;;0.40;;
57726;SDS011;43568;43.180;-0.028;2022-08-07T15:21:49;1.17;;;0.93;;
57726;SDS011;43568;43.180;-0.028;2022-08-07T15:24:19;0.55;;;0.55;;
57726;SDS011;43568;43.180;-0.028;2022-08-07T15:26:50;0.60;;;0.60;;
57726;SDS011;43568;43.180;-0.028;2022-08-07T15:29:19;0.50;;;0.50;;
57726;SDS011;43568;43.180;-0.028;2022-08-07T15:31:47;0.57;;;0.57;;
57726;SDS011;43568;43.180;-0.028;2022-08-07T15:34:14;0.60;;;0.60;;
57726;SDS011;43568;43.180;-0.028;2022-08-07T15:39:07;0.50;;;0.50;;
57726;SDS011;43568;43.180;-0.028;2022-08-07T15:41:55;0.50;;;0.50;;
57726;SDS011;43568;43.180;-0.028;2022-08-07T15:44:22;2.08;;;1.27;;
57726;SDS011;43568;43.180;-0.028;2022-08-07T15:46:54;0.65;;;0.65;;
57726;SDS011;43568;43.180;-0.028;2022-08-07T15:49:23;0.60;;;0.60;;
57726;SDS011;43568;43.180;-0.028;2022-08-07T15:51:50;0.45;;;0.43;;
57726;SDS011;43568;43.180;-0.028;2022-08-07T15:54:18;0.52;;;0.52;;
57726;SDS011;43568;43.180;-0.028;2022-08-07T15:59:12;0.40;;;0.40;;
57726;SDS011;43568;43.180;-0.028;2022-08-07T16:01:46;0.40;;;0.40;;
57726;SDS011;43568;43.180;-0.028;2022-08-07T16:04:13;0.50;;;0.50;;
57726;SDS011;43568;43.180;-0.028;2022-08-07T16:14:14;0.80;;;0.80;;
57726;SDS011;43568;43.180;-0.028;2022-08-07T16:19:34;0.60;;;0.60;;
57726;SDS011;43568;43.180;-0.028;2022-08-07T16:24:50;0.50;;;0.50;;
57726;SDS011;43568;43.180;-0.028;2022-08-07T16:32:31;0.40;;;0.40;;
57726;SDS011;43568;43.180;-0.028;2022-08-07T16:35:09;1.15;;;1.08;;
57726;SDS011;43568;43.180;-0.028;2022-08-07T16:50:30;1.02;;;0.60;;
57726;SDS011;43568;43.180;-0.028;2022-08-07T16:58:21;0.50;;;0.50;;
57726;SDS011;43568;43.180;-0.028;2022-08-07T17:11:47;0.68;;;0.68;;
57726;SDS011;43568;43.180;-0.028;2022-08-07T17:14:20;0.50;;;0.50;;
57726;SDS011;43568;43.180;-0.028;2022-08-07T17:16:50;0.60;;;0.60;;
57726;SDS011;43568;43.180;-0.028;2022-08-07T17:21:46;0.88;;;0.88;;
57726;SDS011;43568;43.180;-0.028;2022-08-07T17:26:43;0.57;;;0.57;;
57726;SDS011;43568;43.180;-0.028;2022-08-07T17:29:20;0.82;;;0.82;;
57726;SDS011;43568;43.180;-0.028;2022-08-07T17:31:48;0.60;;;0.60;;
57726;SDS011;43568;43.180;-0.028;2022-08-07T17:34:21;0.80;;;0.80;;
57726;SDS011;43568;43.180;-0.028;2022-08-07T17:36:50;15.45;;;1.40;;
57726;SDS011;43568;43.180;-0.028;2022-08-07T17:39:18;1.00;;;1.00;;
57726;SDS011;43568;43.180;-0.028;2022-08-07T17:41:46;0.85;;;0.50;;
57726;SDS011;43568;43.180;-0.028;2022-08-07T17:44:16;0.88;;;0.88;;
57726;SDS011;43568;43.180;-0.028;2022-08-07T17:46:53;1.00;;;1.00;;
57726;SDS011;43568;43.180;-0.028;2022-08-07T17:51:49;0.60;;;0.60;;
57726;SDS011;43568;43.180;-0.028;2022-08-07T17:59:27;1.02;;;1.02;;
57726;SDS011;43568;43.180;-0.028;2022-08-07T18:02:00;0.85;;;0.85;;
57726;SDS011;43568;43.180;-0.028;2022-08-07T18:04:43;0.73;;;0.73;;
57726;SDS011;43568;43.180;-0.028;2022-08-07T18:07:14;0.68;;;0.68;;
57726;SDS011;43568;43.180;-0.028;2022-08-07T18:09:43;0.80;;;0.80;;
57726;SDS011;43568;43.180;-0.028;2022-08-07T18:19:53;0.68;;;0.68;;
57726;SDS011;43568;43.180;-0.028;2022-08-07T18:25:07;0.70;;;0.70;;
57726;SDS011;43568;43.180;-0.028;2022-08-07T18:30:09;0.52;;;0.52;;
57726;SDS011;43568;43.180;-0.028;2022-08-07T18:45:26;0.50;;;0.50;;
57726;SDS011;43568;43.180;-0.028;2022-08-07T18:47:59;0.70;;;0.70;;
57726;SDS011;43568;43.180;-0.028;2022-08-07T18:58:38;0.70;;;0.70;;
57726;SDS011;43568;43.180;-0.028;2022-08-07T19:03:43;1.02;;;0.82;;
57726;SDS011;43568;43.180;-0.028;2022-08-07T19:06:15;0.68;;;0.68;;
57726;SDS011;43568;43.180;-0.028;2022-08-07T19:14:05;0.65;;;0.65;;
57726;SDS011;43568;43.180;-0.028;2022-08-07T19:16:42;1.25;;;0.82;;
57726;SDS011;43568;43.180;-0.028;2022-08-07T19:21:58;1.00;;;1.00;;
57726;SDS011;43568;43.180;-0.028;2022-08-07T19:24:35;0.80;;;0.80;;
57726;SDS011;43568;43.180;-0.028;2022-08-07T19:27:02;0.80;;;0.80;;
57726;SDS011;43568;43.180;-0.028;2022-08-07T19:29:29;0.80;;;0.80;;